Nearby METAR Reports

 

ESSA - Arlanda, Stockholm, Sweden
Distance from station: NO 14km
Uppdaterad: 2022-08-15 12:20
Klart
Klart
 Vind från SSO
Vind: SSO 19 km/h
Temperatur: 24°C
Daggpunkt: 14°C
Luftfuktighet: 54%
Barometer: 1014 hPa
Summering: Klart
Visibility: greater than 10 km
2022/08/15 10:20 ESSA 151020Z 15010KT CAVOK 24/14 Q1014 NOSIG
ESSB - Bromma, Stockholm, Sweden
Distance from station: N 14km
Uppdaterad: 2022-08-15 12:20
Klart
Klart
 Vind från V
Vind: V 9 km/h
Temperatur: 24°C
Daggpunkt: 18°C
Luftfuktighet: 69%
Barometer: 1014 hPa
Summering: Klart
Visibility: greater than 10 km
2022/08/15 10:20 ESSB 151020Z 27005KT 240V320 CAVOK 24/18 Q1014
 
KSFO - San Francisco, California, USA
Distance from station: NV 49km
Uppdaterad: 2022-08-15 11:56
Few Clouds
Few Clouds
 Vind från VNV
Vind: VNV 15 km/h
Temperatur: 15°C
Daggpunkt: 12°C
Luftfuktighet: 82%
Barometer: 1012.2 hPa
Clouds: Few Clouds
Visibility: 16 km
Cloud details: Few Clouds 244 m
2022/08/15 09:56 KSFO 150956Z 30008KT 10SM FEW008 15/12 A2989 RMK AO2 SLP122 T01500117